Isanti, MN (55040)

03:49 PM CST del 16 Gennaio 2017 (GMT -0600)
5 Mi SW of Cambridge on Rum River | | Change Station

Alt. 935 ft 45.52 °N, 93.27 °W | Updated 5 seconds ago

Molto nuvoloso
Molto nuvoloso
30.2 °F
Sembra 30 °F
N
3.0
Vento Variabile Vento da Est
Gusts 6.0 mph

Oggi
Massima -- | Minima -- °F
--% Possibilità di precip.
Ieri
Massima -- | Minima -- °F
Precip. -- in
Pressione 30.04 in
Visibilità 10.0 miglia
Nuvole Sereno
Raffreddamento del vento 30 °F
Punto di rugiada 22 °F
Umidità 71%
Piovosità 0.00 in
Spessore del manto nevoso Non disponibile.
7:48 AM 4:57 PM
Gobba a levante, 78% visible
METAR KCBG 162136Z AUTO 10003KT 10SM CLR 00/M07 A3004 RMK AO2
Pressione 30.04 in
Visibilità 10.0 miglia
Nuvole Sereno
Raffreddamento del vento 30 °F
Punto di rugiada 22 °F
Umidità 71%
Piovosità 0.00 in
Spessore del manto nevoso Non disponibile.
7:48 AM 4:57 PM
Gobba a levante, 78% visible
METAR KCBG 162136Z AUTO 10003KT 10SM CLR 00/M07 A3004 RMK AO2

Get Your Daily Forecast Email!

Thanks for signing up!

Be on the lookout for a verification email in your inbox.

You'll start receiving the daily forecast at 8 AM.

×

10-Day Weather Forecast

Almanac

Astronomia

Jan. 16, 2017 Alba Tramonto
Ora attuale
Crepuscolo civile
Crepuscolo nautico
Crepuscolo astronomico
Luna
Estensione della luce visibile
Lunghezza del giorno
Tomorrow will be .
, % of the Moon is Illuminated

Gli estremi di oggi

State Highs State Lows

Community

WunderPhotos

Upload Photos

1,962,540 foto caricate!

WunderBlog® & News

Nearby

Qualità dell'aria

  Qualità dell'aria Indice AQ Inquinante
Not available.

Profondità neve

Stazione Profondità Altitudine

Attività sismica

Città  Distanza Mag. Data & Ora
Minimo Magnitudo Mostrato è 2.5.

Temperature delle acque costiere

Località Temperatura

Stations

Stazioni meteo nelle vicinanze

Ubicazione della stazione Temp. Raffreddamento del vento Punto di rugiada Umidità Vento Precip. Alt. Aggiornato Tipo
                   

Watches & Warnings

There are currently no watches in effect.